Time;durP1;ratioP1;P1;durP2;ratioP2;P2;SDS_P1;SDS_P2;PMS_P1;PMS_P2;Temp;Humidity;BMP_temperature;BMP_pressure;BME280_temperature;BME280_humidity;BME280_pressure;Samples;Min_cycle;Max_cycle;Signal;HPM_P1;HPM_P2
2022/01/30 00:01:08;;;;;;;16.15;1.85;;;6.60;91.30;;;;;;5029485;28;20042;-73
2022/01/30 00:03:34;;;;;;;16.27;1.98;;;6.50;91.40;;;;;;5029414;28;20045;-73
2022/01/30 00:06:00;;;;;;;18.08;1.88;;;6.50;91.70;;;;;;5029226;28;20042;-73
2022/01/30 00:08:25;;;;;;;17.05;2.67;;;6.40;91.90;;;;;;5030117;28;20124;-73
2022/01/30 00:10:57;;;;;;;16.80;1.95;;;6.40;92.20;;;;;;5028622;28;20044;-73
2022/01/30 00:13:25;;;;;;;14.98;1.77;;;6.30;92.50;;;;;;5030904;28;20100;-73
2022/01/30 00:15:53;;;;;;;23.25;2.30;;;6.30;92.70;;;;;;5029122;28;20091;-73
2022/01/30 00:21:10;;;;;;;17.60;2.10;;;6.20;93.20;;;;;;5029326;28;20049;-72
2022/01/30 00:23:41;;;;;;;11.27;2.30;;;6.10;93.50;;;;;;5029604;28;20049;-73
2022/01/30 00:26:08;;;;;;;20.73;2.58;;;6.10;93.60;;;;;;5029046;28;20049;-73
2022/01/30 00:28:36;;;;;;;19.10;2.10;;;6.10;93.70;;;;;;5029138;28;20461;-73
2022/01/30 00:31:01;;;;;;;21.08;2.13;;;6.10;93.90;;;;;;5012888;28;20409;-73
2022/01/30 00:33:27;;;;;;;20.95;2.72;;;6.10;94.10;;;;;;5028641;28;20092;-73
2022/01/30 00:35:52;;;;;;;22.30;2.60;;;6.10;94.40;;;;;;5028843;28;20056;-73
2022/01/30 00:38:21;;;;;;;18.88;2.78;;;6.10;94.50;;;;;;5012741;28;20081;-73
2022/01/30 00:40:48;;;;;;;21.20;2.88;;;6.10;94.60;;;;;;5028004;28;20502;-72
2022/01/30 00:43:14;;;;;;;23.33;2.72;;;6.10;94.60;;;;;;5029323;28;20513;-73
2022/01/30 00:45:40;;;;;;;22.00;2.50;;;6.10;94.60;;;;;;5012460;28;20449;-71
2022/01/30 00:48:06;;;;;;;22.48;2.50;;;6.10;94.60;;;;;;5028261;28;20045;-71
2022/01/30 00:50:32;;;;;;;19.77;2.67;;;6.10;94.60;;;;;;5029620;28;20052;-71
2022/01/30 00:52:58;;;;;;;15.98;2.50;;;6.10;94.60;;;;;;5010703;28;20037;-71
2022/01/30 00:55:29;;;;;;;22.60;2.53;;;6.00;94.60;;;;;;5029674;28;20045;-71
2022/01/30 00:57:56;;;;;;;13.20;2.42;;;6.00;94.70;;;;;;5028404;28;20069;-71
2022/01/30 01:00:26;;;;;;;17.83;1.70;;;6.10;94.70;;;;;;5029158;28;20401;-70
2022/01/30 01:02:51;;;;;;;15.57;1.80;;;6.20;94.50;;;;;;5028810;28;20041;-72
2022/01/30 01:05:17;;;;;;;12.77;1.08;;;6.30;94.50;;;;;;5029443;28;20041;-72
2022/01/30 01:07:46;;;;;;;11.35;1.85;;;6.30;94.00;;;;;;5028002;28;20039;-71
2022/01/30 01:23:50;;;;;;;6.30;0.52;;;6.30;92.20;;;;;;5032720;28;20058;-70
2022/01/30 01:26:16;;;;;;;9.15;0.82;;;6.20;91.70;;;;;;5012691;28;20041;-71
2022/01/30 01:28:42;;;;;;;4.65;0.28;;;6.10;91.60;;;;;;5028601;28;20092;-71
2022/01/30 01:31:08;;;;;;;13.23;0.80;;;6.20;91.50;;;;;;5028376;28;20077;-71
2022/01/30 01:36:19;;;;;;;10.05;0.80;;;6.00;91.80;;;;;;5028450;28;20045;-71
2022/01/30 01:38:45;;;;;;;11.65;0.98;;;6.00;92.00;;;;;;5027933;28;20064;-70
2022/01/30 01:41:11;;;;;;;11.43;0.82;;;5.90;92.30;;;;;;5028709;28;20060;-69
2022/01/30 01:43:38;;;;;;;9.93;0.82;;;5.80;92.50;;;;;;5028095;28;20042;-71
2022/01/30 01:46:12;;;;;;;8.10;1.15;;;5.80;92.90;;;;;;5012152;28;20425;-71
2022/01/30 01:48:37;;;;;;;11.07;0.77;;;5.80;93.20;;;;;;5029744;28;20084;-70
2022/01/30 01:51:14;;;;;;;13.90;1.30;;;5.70;93.40;;;;;;5031065;28;20100;-71
2022/01/30 01:53:40;;;;;;;12.52;1.45;;;5.70;93.60;;;;;;5031413;28;20033;-70
2022/01/30 01:56:06;;;;;;;11.23;1.23;;;5.60;93.80;;;;;;5031906;28;20516;-71
2022/01/30 01:58:32;;;;;;;16.13;2.25;;;5.60;94.00;;;;;;5032280;28;20401;-71
2022/01/30 02:00:59;;;;;;;17.80;1.55;;;5.60;94.10;;;;;;5038911;28;20110;-70
2022/01/30 02:03:26;;;;;;;16.92;1.40;;;5.60;94.10;;;;;;5033306;28;20046;-70
2022/01/30 02:05:56;;;;;;;15.10;1.75;;;5.60;94.40;;;;;;5048585;28;20041;-70
2022/01/30 02:08:33;;;;;;;16.13;1.35;;;5.60;94.10;;;;;;5024282;28;20049;-70
2022/01/30 02:24:26;;;;;;;16.95;2.22;;;5.80;94.10;;;;;;5031526;28;20049;-71
2022/01/30 02:26:51;;;;;;;16.05;1.58;;;5.70;94.20;;;;;;5032384;28;20053;-71
2022/01/30 02:29:19;;;;;;;15.63;2.20;;;5.70;94.20;;;;;;5031856;28;20057;-70
2022/01/30 02:31:45;;;;;;;17.00;1.92;;;5.80;94.30;;;;;;5030519;28;20051;-71
2022/01/30 02:34:10;;;;;;;15.98;2.55;;;5.80;94.20;;;;;;5031204;28;20042;-70
2022/01/30 02:36:49;;;;;;;17.58;1.70;;;5.90;94.10;;;;;;5031900;28;20054;-70
2022/01/30 02:39:16;;;;;;;13.77;1.55;;;5.90;93.80;;;;;;5014374;28;20083;-70
2022/01/30 02:41:42;;;;;;;17.67;1.75;;;5.90;93.80;;;;;;5031472;28;20038;-69
2022/01/30 02:46:52;;;;;;;19.67;1.90;;;6.00;93.80;;;;;;5030533;28;20495;-70
2022/01/30 02:51:50;;;;;;;17.23;1.75;;;5.90;93.90;;;;;;5041797;28;20508;-70
2022/01/30 02:54:15;;;;;;;;;;;5.90;94.10;;;;;;5014797;28;20128;-71
2022/01/30 02:56:42;;;;;;;22.00;2.08;;;5.80;94.20;;;;;;5014535;28;19975;-71
2022/01/30 02:59:08;;;;;;;18.70;1.73;;;5.80;94.20;;;;;;5014649;28;20041;-71
2022/01/30 03:01:33;;;;;;;21.17;2.00;;;5.80;94.20;;;;;;5013335;28;20546;-71
2022/01/30 03:03:59;;;;;;;14.60;1.70;;;5.80;94.40;;;;;;5030326;28;20390;-71
2022/01/30 03:06:26;;;;;;;23.35;2.42;;;5.70;94.40;;;;;;5031039;28;20379;-70
2022/01/30 03:08:52;;;;;;;19.13;2.53;;;5.70;94.70;;;;;;5030435;28;20045;-70
2022/01/30 03:11:18;;;;;;;15.13;1.67;;;5.70;94.90;;;;;;5030869;28;20045;-72
2022/01/30 03:13:43;;;;;;;14.85;1.95;;;5.70;95.00;;;;;;5013985;28;20049;-71
2022/01/30 03:16:09;;;;;;;21.30;2.42;;;5.70;95.30;;;;;;5029818;28;20094;-72
2022/01/30 03:18:36;;;;;;;17.40;2.00;;;5.70;95.30;;;;;;5030601;28;20048;-71
2022/01/30 03:21:02;;;;;;;14.75;1.67;;;5.70;95.50;;;;;;5038439;28;20047;-71
2022/01/30 03:23:29;;;;;;;18.40;2.65;;;5.80;95.50;;;;;;5017860;28;20047;-71
2022/01/30 03:25:58;;;;;;;12.55;1.38;;;5.90;95.50;;;;;;5029640;28;20213;-70
2022/01/30 03:28:24;;;;;;;18.67;2.03;;;5.90;95.60;;;;;;5030413;28;20382;-70
2022/01/30 03:30:54;;;;;;;12.63;2.17;;;5.90;95.60;;;;;;5029568;28;20103;-71
2022/01/30 03:33:20;;;;;;;19.77;2.45;;;5.80;95.60;;;;;;5030742;28;20132;-71
2022/01/30 03:35:45;;;;;;;17.13;2.33;;;5.80;95.70;;;;;;5012911;28;20124;-70
2022/01/30 03:38:11;;;;;;;17.48;2.33;;;5.80;95.70;;;;;;5030333;28;20386;-70
2022/01/30 03:40:37;;;;;;;15.35;2.03;;;5.70;95.80;;;;;;5030403;28;20049;-70
2022/01/30 03:43:03;;;;;;;21.92;2.50;;;5.70;95.70;;;;;;5029634;28;20057;-70
2022/01/30 03:45:29;;;;;;;16.25;2.30;;;5.60;95.80;;;;;;5030539;28;20457;-69
2022/01/30 03:47:57;;;;;;;17.70;2.17;;;5.60;95.80;;;;;;5012833;28;20048;-71
2022/01/30 03:50:23;;;;;;;20.00;2.83;;;5.60;95.70;;;;;;5030526;28;20050;-70
2022/01/30 03:52:49;;;;;;;17.13;1.95;;;5.60;95.80;;;;;;5012693;28;20050;-70
2022/01/30 03:55:15;;;;;;;17.70;2.17;;;5.50;95.80;;;;;;5030096;28;20383;-70
2022/01/30 03:57:41;;;;;;;16.65;3.00;;;5.50;95.90;;;;;;5029444;28;20048;-71
2022/01/30 04:00:08;;;;;;;22.88;2.65;;;5.50;96.00;;;;;;5030070;28;20137;-70
2022/01/30 04:02:34;;;;;;;25.42;3.25;;;5.50;96.20;;;;;;5029765;28;20038;-71
2022/01/30 04:04:59;;;;;;;21.65;3.08;;;5.50;96.20;;;;;;5029087;28;20045;-70
2022/01/30 04:07:26;;;;;;;23.23;3.00;;;5.60;96.30;;;;;;5013665;28;20053;-71
2022/01/30 04:09:52;;;;;;;16.92;2.67;;;5.60;96.50;;;;;;5012084;28;20436;-70
2022/01/30 04:12:18;;;;;;;20.63;2.35;;;5.70;96.50;;;;;;5029570;28;20103;-71
2022/01/30 04:14:45;;;;;;;18.75;2.88;;;5.70;96.70;;;;;;5029842;28;20041;-71
2022/01/30 04:17:11;;;;;;;24.70;2.72;;;5.60;96.70;;;;;;5029421;28;20128;-71
2022/01/30 04:19:37;;;;;;;22.55;2.78;;;5.60;96.80;;;;;;5029427;28;20578;-71
2022/01/30 04:22:03;;;;;;;26.48;3.08;;;5.50;97.00;;;;;;5030516;28;20068;-71
2022/01/30 04:24:28;;;;;;;22.77;3.22;;;5.50;96.90;;;;;;5029546;28;20033;-71
2022/01/30 04:26:54;;;;;;;21.95;3.50;;;5.40;97.10;;;;;;5029112;28;20547;-70
2022/01/30 04:29:20;;;;;;;25.80;3.83;;;5.40;97.30;;;;;;5029291;28;20053;-70
2022/01/30 04:31:48;;;;;;;25.77;3.63;;;5.40;97.20;;;;;;5028752;28;20402;-71
2022/01/30 04:34:15;;;;;;;28.45;3.42;;;5.40;97.20;;;;;;5013005;28;20078;-70
2022/01/30 04:36:54;;;;;;;26.88;4.28;;;5.40;97.20;;;;;;5029346;28;20056;-70
2022/01/30 04:39:50;;;;;;;33.13;4.10;;;5.40;97.10;;;;;;5028774;28;20052;-70
2022/01/30 04:55:59;;;;;;;27.38;4.10;;;5.40;95.40;;;;;;5028808;28;20049;-71
2022/01/30 05:01:21;;;;;;;22.70;4.60;;;5.40;94.60;;;;;;5028354;28;20045;-70
2022/01/30 05:06:05;;;;;;;27.00;3.78;;;5.40;94.20;;;;;;5027339;28;20041;-73
2022/01/30 05:08:31;;;;;;;26.00;3.55;;;5.40;93.80;;;;;;5028936;28;20124;-69
2022/01/30 05:10:57;;;;;;;31.73;4.25;;;5.40;93.50;;;;;;5028122;28;20464;-70
2022/01/30 05:13:27;;;;;;;28.13;3.88;;;5.40;93.00;;;;;;5028436;28;20132;-70
2022/01/30 05:15:53;;;;;;;25.85;3.50;;;5.40;92.20;;;;;;5037635;28;20548;-70
2022/01/30 05:18:24;;;;;;;22.23;4.38;;;5.40;92.60;;;;;;5029754;28;20053;-70
2022/01/30 05:20:50;;;;;;;23.23;4.32;;;5.40;92.30;;;;;;5022363;28;20469;-70
2022/01/30 05:23:18;;;;;;;28.33;3.20;;;5.40;91.80;;;;;;5029461;28;20466;-71
2022/01/30 05:25:46;;;;;;;26.95;3.85;;;5.40;91.80;;;;;;5016083;28;20137;-70
2022/01/30 05:28:13;;;;;;;27.30;4.00;;;5.40;91.70;;;;;;5033644;28;20041;-71
2022/01/30 05:30:38;;;;;;;22.83;3.67;;;5.40;91.50;;;;;;5032527;28;20053;-71
2022/01/30 05:33:04;;;;;;;20.00;3.95;;;5.30;91.60;;;;;;5013617;28;20856;-71
2022/01/30 05:35:30;;;;;;;24.25;3.53;;;5.30;91.40;;;;;;5032634;28;20085;-71
2022/01/30 05:37:56;;;;;;;24.80;3.30;;;5.30;91.40;;;;;;5015635;28;20598;-71
2022/01/30 05:40:23;;;;;;;26.42;3.60;;;5.20;91.70;;;;;;5032852;28;20050;-71
2022/01/30 05:42:49;;;;;;;26.40;3.80;;;5.20;91.50;;;;;;5021884;28;20045;-71
2022/01/30 05:45:20;;;;;;;30.40;4.03;;;5.20;91.60;;;;;;5016324;28;20045;-71
2022/01/30 05:47:54;;;;;;;22.70;3.80;;;5.20;91.70;;;;;;5032166;28;20049;-70
2022/01/30 05:50:20;;;;;;;22.65;4.03;;;5.20;91.80;;;;;;5032189;28;20049;-70
2022/01/30 05:52:46;;;;;;;22.10;3.55;;;5.20;91.90;;;;;;5032086;28;20525;-69
2022/01/30 05:55:11;;;;;;;24.38;3.40;;;5.10;91.90;;;;;;5031693;28;20094;-70
2022/01/30 05:57:37;;;;;;;22.60;4.05;;;5.20;91.90;;;;;;5015904;28;20037;-70
2022/01/30 06:00:08;;;;;;;24.90;3.65;;;5.20;91.90;;;;;;5032272;28;20057;-70
2022/01/30 06:02:34;;;;;;;26.40;3.83;;;5.20;91.70;;;;;;5032164;28;20096;-71
2022/01/30 06:05:00;;;;;;;29.73;4.28;;;5.30;91.60;;;;;;5031541;28;20513;-71
2022/01/30 06:07:29;;;;;;;32.08;4.00;;;5.30;91.50;;;;;;5032207;28;20041;-71
2022/01/30 06:09:55;;;;;;;20.10;3.15;;;5.30;91.30;;;;;;5018852;28;20050;-72
2022/01/30 06:12:21;;;;;;;27.05;4.20;;;5.20;91.40;;;;;;5015429;28;20037;-72
2022/01/30 06:14:47;;;;;;;24.13;3.78;;;5.20;91.30;;;;;;5030913;28;20049;-72
2022/01/30 06:17:14;;;;;;;30.55;4.32;;;5.10;91.30;;;;;;5031507;28;20045;-70
2022/01/30 06:19:39;;;;;;;32.22;5.03;;;5.20;91.30;;;;;;5031575;28;20077;-71
2022/01/30 06:22:05;;;;;;;28.98;4.50;;;5.20;91.10;;;;;;5031740;28;20111;-72
2022/01/30 06:24:30;;;;;;;30.13;4.57;;;5.30;91.00;;;;;;5014808;28;20040;-72
2022/01/30 06:26:56;;;;;;;24.50;4.78;;;5.30;91.20;;;;;;5030933;28;20383;-70
2022/01/30 06:29:22;;;;;;;32.78;5.47;;;5.40;91.20;;;;;;5031654;28;20064;-70
2022/01/30 06:31:47;;;;;;;23.95;3.60;;;5.40;91.00;;;;;;5030613;28;20045;-70
2022/01/30 06:34:13;;;;;;;27.23;4.78;;;5.40;91.00;;;;;;5031627;28;20033;-71
2022/01/30 06:36:38;;;;;;;27.20;5.18;;;5.30;91.00;;;;;;5030756;28;20509;-70
2022/01/30 06:39:04;;;;;;;30.70;4.78;;;5.30;91.00;;;;;;5030557;28;20064;-70
2022/01/30 06:41:30;;;;;;;30.35;5.18;;;5.30;91.00;;;;;;5031554;28;20045;-71
2022/01/30 06:43:55;;;;;;;28.70;4.05;;;5.30;91.10;;;;;;5031100;28;20049;-70
2022/01/30 06:46:21;;;;;;;34.80;4.30;;;5.30;91.20;;;;;;5031199;28;20092;-71
2022/01/30 06:48:46;;;;;;;28.42;4.28;;;5.30;91.20;;;;;;5032027;28;20037;-71
2022/01/30 06:51:12;;;;;;;33.10;4.65;;;5.20;91.30;;;;;;5031248;28;20451;-72
2022/01/30 06:53:37;;;;;;;27.23;4.57;;;5.20;91.50;;;;;;5030912;28;20103;-72
2022/01/30 06:56:03;;;;;;;27.90;4.32;;;5.10;91.50;;;;;;5030774;28;20049;-71
2022/01/30 06:58:29;;;;;;;27.00;3.78;;;5.20;91.60;;;;;;5030775;28;20046;-72
2022/01/30 07:00:54;;;;;;;31.50;3.90;;;5.20;91.50;;;;;;5032037;28;20093;-70
2022/01/30 07:03:20;;;;;;;28.42;4.38;;;5.10;91.60;;;;;;5031040;28;20466;-71
2022/01/30 07:05:46;;;;;;;23.45;4.88;;;5.20;91.70;;;;;;5030963;28;20056;-71
2022/01/30 07:08:11;;;;;;;30.25;4.28;;;5.20;91.60;;;;;;5014733;28;20049;-71
2022/01/30 07:10:38;;;;;;;20.70;3.92;;;5.30;91.30;;;;;;5030826;28;20041;-71
2022/01/30 07:13:04;;;;;;;31.30;4.63;;;5.40;91.20;;;;;;5029894;28;20062;-71
2022/01/30 07:15:29;;;;;;;32.35;4.68;;;5.50;91.00;;;;;;5031348;28;20056;-71
2022/01/30 07:17:55;;;;;;;27.73;4.32;;;5.60;90.70;;;;;;5030188;28;20041;-70
2022/01/30 07:20:21;;;;;;;24.45;4.45;;;5.70;90.50;;;;;;5030037;28;20095;-71
2022/01/30 07:22:46;;;;;;;31.45;4.63;;;5.80;90.40;;;;;;5030537;28;20053;-71
2022/01/30 07:25:12;;;;;;;33.53;4.28;;;5.80;90.30;;;;;;5030647;28;20048;-71
2022/01/30 07:27:38;;;;;;;34.28;4.82;;;5.90;90.30;;;;;;5013409;28;20136;-71
2022/01/30 07:30:05;;;;;;;30.50;4.82;;;5.90;90.30;;;;;;5030012;28;20042;-71
2022/01/30 07:32:30;;;;;;;27.25;3.88;;;5.90;90.50;;;;;;5014210;28;20046;-72
2022/01/30 07:34:56;;;;;;;30.55;5.10;;;5.90;90.50;;;;;;5013268;28;20119;-72
2022/01/30 07:37:23;;;;;;;31.77;5.68;;;5.90;90.60;;;;;;5030545;28;20133;-72
2022/01/30 07:39:48;;;;;;;21.58;5.22;;;5.90;90.90;;;;;;5030544;28;20081;-72
2022/01/30 07:42:14;;;;;;;23.48;3.97;;;6.00;90.70;;;;;;5029776;28;20096;-71
2022/01/30 07:44:40;;;;;;;29.10;4.20;;;6.00;90.60;;;;;;5030316;28;20092;-72
2022/01/30 07:47:06;;;;;;;30.85;4.63;;;6.00;90.60;;;;;;5031084;28;20055;-71
2022/01/30 07:49:32;;;;;;;28.67;4.25;;;5.90;90.40;;;;;;5029559;28;20132;-71
2022/01/30 07:51:58;;;;;;;30.63;4.78;;;6.00;90.50;;;;;;5029464;28;20152;-72
2022/01/30 07:54:23;;;;;;;33.13;4.80;;;6.00;90.30;;;;;;5014272;28;20052;-71
2022/01/30 07:56:49;;;;;;;30.45;5.38;;;6.00;90.20;;;;;;5011831;28;20045;-71
2022/01/30 07:59:15;;;;;;;33.50;4.93;;;5.90;90.10;;;;;;5029414;28;20453;-72
2022/01/30 08:01:40;;;;;;;26.85;3.75;;;5.90;89.80;;;;;;5045670;28;20489;-71
2022/01/30 08:04:07;;;;;;;27.75;4.70;;;6.00;89.80;;;;;;5016402;28;20443;-72
2022/01/30 08:06:35;;;;;;;21.75;4.25;;;6.00;90.00;;;;;;5029838;28;20046;-73
2022/01/30 08:09:02;;;;;;;27.02;4.15;;;6.00;90.10;;;;;;5028977;28;20037;-72
2022/01/30 08:11:28;;;;;;;30.08;5.80;;;6.00;89.80;;;;;;5029617;28;20098;-72
2022/01/30 08:13:53;;;;;;;29.63;5.38;;;6.10;89.60;;;;;;5012882;28;20041;-72
2022/01/30 08:16:20;;;;;;;29.00;5.57;;;6.10;90.00;;;;;;5021370;28;20041;-71
2022/01/30 08:18:46;;;;;;;36.28;4.75;;;6.10;89.50;;;;;;5028481;28;20417;-71
2022/01/30 08:21:12;;;;;;;28.98;4.75;;;6.20;90.00;;;;;;5030164;28;20038;-71
2022/01/30 08:23:37;;;;;;;36.78;5.05;;;6.20;90.00;;;;;;5037518;28;20130;-70
2022/01/30 08:26:03;;;;;;;33.92;4.88;;;6.20;89.80;;;;;;5032587;28;20055;-71
2022/01/30 08:28:29;;;;;;;34.63;5.05;;;6.20;89.40;;;;;;5026118;28;20848;-71
2022/01/30 08:30:55;;;;;;;28.73;4.47;;;6.20;89.30;;;;;;5024466;28;20498;-71
2022/01/30 08:33:21;;;;;;;27.88;4.70;;;6.30;89.60;;;;;;5029010;28;20057;-71
2022/01/30 08:35:48;;;;;;;30.00;5.07;;;6.30;89.70;;;;;;5025991;28;20042;-70
2022/01/30 08:38:16;;;;;;;21.90;4.45;;;6.30;89.60;;;;;;5026729;28;20060;-71
2022/01/30 08:40:42;;;;;;;30.30;4.82;;;6.30;89.20;;;;;;5012350;28;20041;-70
2022/01/30 08:43:08;;;;;;;27.63;5.30;;;6.30;88.60;;;;;;5028264;28;20406;-70
2022/01/30 08:45:33;;;;;;;32.20;5.35;;;6.30;88.20;;;;;;5025209;28;20045;-70
2022/01/30 08:47:59;;;;;;;33.33;5.45;;;6.40;88.80;;;;;;5004411;28;20693;-71
2022/01/30 08:50:25;;;;;;;24.95;4.43;;;6.30;87.90;;;;;;5028112;28;20038;-71
2022/01/30 08:52:51;;;;;;;36.72;5.53;;;6.30;88.00;;;;;;5027973;28;20447;-71
2022/01/30 08:55:18;;;;;;;33.70;5.43;;;6.30;88.20;;;;;;5022083;28;20128;-71
2022/01/30 08:57:44;;;;;;;32.05;4.38;;;6.20;88.40;;;;;;5023242;28;20049;-70
2022/01/30 09:00:12;;;;;;;33.33;5.70;;;6.20;88.50;;;;;;5027323;28;20367;-71
2022/01/30 09:02:39;;;;;;;37.45;6.00;;;6.00;88.60;;;;;;5026907;28;20053;-71
2022/01/30 09:05:06;;;;;;;29.08;5.25;;;6.00;88.70;;;;;;5023022;28;20053;-70
2022/01/30 09:07:31;;;;;;;26.10;4.57;;;6.00;88.20;;;;;;5028484;28;20437;-70
2022/01/30 09:09:57;;;;;;;24.13;4.57;;;6.10;87.10;;;;;;5027852;28;20045;-71
2022/01/30 09:12:24;;;;;;;35.20;5.75;;;6.20;86.20;;;;;;5009918;28;20045;-70
2022/01/30 09:14:50;;;;;;;31.48;5.07;;;6.30;83.60;;;;;;5028238;28;20049;-70
2022/01/30 09:17:16;;;;;;;26.98;5.13;;;6.40;82.60;;;;;;5010077;28;20504;-70
2022/01/30 09:19:44;;;;;;;29.10;4.00;;;6.40;82.30;;;;;;5026689;28;20117;-68
2022/01/30 09:22:13;;;;;;;27.15;4.45;;;6.40;79.90;;;;;;4995785;28;20641;-71
2022/01/30 09:24:39;;;;;;;26.88;4.53;;;6.40;79.50;;;;;;5025043;28;20092;-69
2022/01/30 09:27:06;;;;;;;27.88;4.80;;;6.40;80.00;;;;;;5025679;28;20523;-69
2022/01/30 09:29:34;;;;;;;30.45;4.65;;;6.30;78.50;;;;;;5012201;28;20398;-70
2022/01/30 09:32:04;;;;;;;25.80;4.20;;;6.30;78.90;;;;;;5026542;28;20107;-70
2022/01/30 09:34:30;;;;;;;38.63;4.15;;;6.30;79.50;;;;;;5028711;28;20104;-69
2022/01/30 09:36:56;;;;;;;21.70;4.28;;;6.40;79.90;;;;;;5029309;28;20041;-70
2022/01/30 09:39:23;;;;;;;29.00;4.03;;;6.40;80.30;;;;;;5028137;28;20061;-69
2022/01/30 09:41:51;;;;;;;25.17;4.13;;;6.40;79.60;;;;;;5028674;28;20060;-70
2022/01/30 09:44:18;;;;;;;31.75;4.90;;;6.50;80.10;;;;;;5029150;28;20394;-70
2022/01/30 09:46:44;;;;;;;17.80;4.45;;;6.50;80.20;;;;;;5027573;28;20512;-70
2022/01/30 09:49:11;;;;;;;31.35;4.40;;;6.50;80.60;;;;;;5028634;28;20106;-70
2022/01/30 09:51:39;;;;;;;22.10;4.50;;;6.50;80.70;;;;;;5028393;28;20038;-70
2022/01/30 09:54:06;;;;;;;23.30;4.40;;;6.50;80.50;;;;;;5024750;28;20501;-70
2022/01/30 09:56:31;;;;;;;28.13;5.15;;;6.60;80.60;;;;;;5028148;28;20052;-70
2022/01/30 09:58:57;;;;;;;30.83;4.32;;;6.60;80.40;;;;;;5027239;28;20037;-71
2022/01/30 10:01:33;;;;;;;35.00;4.95;;;6.60;81.20;;;;;;5010669;28;20132;-70
2022/01/30 10:03:59;;;;;;;28.55;4.78;;;6.70;81.50;;;;;;5026745;28;20042;-70
2022/01/30 10:06:30;;;;;;;28.88;4.63;;;6.70;81.40;;;;;;5010171;28;20042;-70
2022/01/30 10:08:57;;;;;;;29.75;4.63;;;6.80;82.00;;;;;;5027149;28;20034;-71
2022/01/30 10:11:31;;;;;;;20.80;4.38;;;6.80;81.70;;;;;;5028977;28;20095;-70
2022/01/30 10:14:08;;;;;;;31.30;4.38;;;6.90;80.90;;;;;;5030905;28;20058;-70
2022/01/30 10:16:48;;;;;;;24.67;4.80;;;7.00;80.70;;;;;;5016005;28;20041;-70
2022/01/30 10:19:17;;;;;;;29.50;5.13;;;7.10;81.00;;;;;;5016061;28;20037;-71
2022/01/30 10:21:44;;;;;;;36.85;4.93;;;7.20;81.10;;;;;;5014720;28;20103;-70
2022/01/30 10:24:28;;;;;;;29.08;4.97;;;7.40;81.30;;;;;;5033638;28;20049;-70
2022/01/30 10:26:57;;;;;;;29.08;4.68;;;7.50;80.80;;;;;;5031356;28;20046;-69
2022/01/30 10:29:29;;;;;;;31.85;5.72;;;7.60;81.20;;;;;;5031549;28;20041;-71
2022/01/30 10:32:06;;;;;;;40.88;5.05;;;7.70;81.10;;;;;;5031128;28;20053;-70
2022/01/30 10:34:34;;;;;;;34.28;5.82;;;7.70;81.30;;;;;;5032440;28;20433;-69
2022/01/30 10:37:19;;;;;;;35.63;5.22;;;7.70;81.50;;;;;;5031114;28;20049;-70
2022/01/30 10:40:00;;;;;;;29.75;5.20;;;7.70;81.50;;;;;;5031350;28;20060;-69
2022/01/30 10:42:33;;;;;;;32.47;5.97;;;7.70;81.20;;;;;;5031512;28;20064;-72
2022/01/30 10:44:59;;;;;;;35.03;5.55;;;7.60;81.20;;;;;;5030986;28;20044;-70
2022/01/30 10:47:24;;;;;;;33.40;5.50;;;7.50;81.80;;;;;;5032039;28;20471;-70
2022/01/30 10:49:50;;;;;;;29.58;6.05;;;7.40;81.30;;;;;;5030341;28;20041;-70
2022/01/30 10:52:16;;;;;;;30.02;5.40;;;7.40;81.40;;;;;;5015113;28;20409;-69
2022/01/30 10:54:41;;;;;;;31.80;5.50;;;7.40;81.80;;;;;;5031608;28;20046;-69
2022/01/30 10:57:09;;;;;;;28.38;4.43;;;7.40;80.80;;;;;;5049788;28;20049;-69
2022/01/30 10:59:42;;;;;;;33.63;4.90;;;7.40;79.70;;;;;;5042733;28;20053;-70
2022/01/30 11:02:12;;;;;;;30.10;6.60;;;7.50;80.10;;;;;;5031437;28;20046;-70
2022/01/30 11:04:37;;;;;;;23.00;4.68;;;7.50;79.50;;;;;;5030776;28;20075;-70
2022/01/30 11:07:04;;;;;;;25.77;4.35;;;7.50;79.60;;;;;;5014667;28;20581;-70
2022/01/30 11:09:35;;;;;;;33.50;4.63;;;7.60;78.80;;;;;;5031135;28;20052;-70
2022/01/30 11:12:07;;;;;;;30.35;5.22;;;7.70;79.50;;;;;;5030781;28;20442;-70
2022/01/30 11:17:16;;;;;;;18.65;3.78;;;7.90;77.10;;;;;;5030893;28;20068;-69
2022/01/30 11:19:45;;;;;;;22.65;4.40;;;7.90;74.90;;;;;;5030472;28;20112;-70
2022/01/30 11:22:13;;;;;;;21.30;3.78;;;8.00;74.80;;;;;;5015742;28;20056;-70
2022/01/30 11:25:04;;;;;;;26.02;4.18;;;8.00;73.20;;;;;;5030059;28;20049;-70
2022/01/30 11:27:31;;;;;;;22.70;3.47;;;8.00;72.10;;;;;;5031343;28;20497;-69
2022/01/30 11:29:58;;;;;;;23.98;3.58;;;8.00;72.90;;;;;;5029862;28;20524;-70
2022/01/30 11:32:27;;;;;;;25.08;4.47;;;8.00;72.00;;;;;;5030838;28;20063;-70
2022/01/30 11:34:54;;;;;;;21.83;4.32;;;8.00;71.10;;;;;;5030362;28;20468;-69
2022/01/30 11:37:20;;;;;;;31.27;4.25;;;8.10;71.80;;;;;;5031211;28;20140;-69
2022/01/30 11:39:48;;;;;;;26.70;4.10;;;8.20;72.20;;;;;;5029218;28;20125;-70
2022/01/30 11:42:27;;;;;;;24.90;4.80;;;8.20;73.40;;;;;;5031155;28;20091;-68
2022/01/30 11:45:08;;;;;;;29.13;3.97;;;8.40;73.40;;;;;;5029539;28;20045;-70
2022/01/30 11:47:58;;;;;;;22.25;3.35;;;8.40;72.90;;;;;;5027572;28;20046;-72
2022/01/30 11:50:29;;;;;;;21.60;3.90;;;8.20;70.40;;;;;;5030456;28;20050;-71
2022/01/30 11:53:01;;;;;;;25.67;4.07;;;8.10;72.30;;;;;;5027932;28;20037;-70
2022/01/30 11:55:49;;;;;;;24.38;4.43;;;8.10;71.20;;;;;;5027133;28;20042;-70
2022/01/30 11:58:30;;;;;;;17.50;3.72;;;8.10;71.20;;;;;;5024163;28;20339;-70
2022/01/30 12:00:58;;;;;;;20.20;3.75;;;8.10;71.40;;;;;;5004822;28;20056;-70
2022/01/30 12:03:27;;;;;;;20.40;3.10;;;8.20;71.40;;;;;;5028823;28;20041;-70
2022/01/30 12:05:55;;;;;;;31.45;3.60;;;8.20;71.50;;;;;;5029352;28;20045;-70
2022/01/30 12:08:52;;;;;;;21.95;3.97;;;8.40;71.20;;;;;;5012072;28;20076;-70
2022/01/30 12:11:36;;;;;;;22.40;4.90;;;8.60;70.40;;;;;;5029674;28;20124;-70
2022/01/30 12:14:42;;;;;;;24.33;4.28;;;8.80;68.90;;;;;;5025338;28;20041;-71
2022/01/30 12:17:08;;;;;;;17.48;3.30;;;8.80;65.60;;;;;;5028131;28;20037;-70
2022/01/30 12:19:37;;;;;;;26.23;4.22;;;8.70;67.80;;;;;;5025922;28;20485;-69
2022/01/30 12:22:18;;;;;;;20.65;4.07;;;8.60;67.90;;;;;;5011081;28;20374;-70
2022/01/30 12:24:49;;;;;;;19.80;3.80;;;8.50;68.20;;;;;;5026505;28;20107;-72
2022/01/30 12:27:16;;;;;;;23.65;4.03;;;8.60;69.10;;;;;;5008965;28;20053;-70
2022/01/30 12:29:47;;;;;;;22.85;3.60;;;8.60;70.10;;;;;;5029058;28;20556;-69
2022/01/30 12:32:25;;;;;;;30.17;4.65;;;8.70;69.60;;;;;;5013593;28;20045;-71
2022/01/30 12:34:54;;;;;;;28.63;4.32;;;8.80;68.60;;;;;;5027775;28;20390;-71
2022/01/30 12:37:25;;;;;;;25.38;4.45;;;8.80;68.80;;;;;;5028410;28;20053;-72
2022/01/30 12:39:52;;;;;;;24.00;4.00;;;8.80;69.40;;;;;;5028913;28;20033;-71
2022/01/30 12:42:19;;;;;;;25.42;3.70;;;8.70;69.40;;;;;;5028970;28;20045;-71
2022/01/30 12:44:46;;;;;;;29.02;4.22;;;8.80;69.80;;;;;;5012751;28;20034;-72
2022/01/30 12:47:13;;;;;;;21.75;3.88;;;8.80;69.30;;;;;;5029538;28;20417;-72
2022/01/30 12:49:43;;;;;;;28.50;4.53;;;8.90;69.80;;;;;;5011863;28;20049;-71
2022/01/30 12:52:30;;;;;;;25.15;4.15;;;9.00;70.20;;;;;;5029299;28;20534;-71
2022/01/30 12:54:59;;;;;;;22.33;3.95;;;9.10;69.60;;;;;;5028290;28;20093;-71
2022/01/30 12:57:26;;;;;;;23.25;4.53;;;9.20;69.50;;;;;;5010033;28;20103;-70
2022/01/30 12:59:53;;;;;;;30.13;3.88;;;9.20;69.30;;;;;;5023847;28;20048;-70
2022/01/30 13:02:19;;;;;;;24.58;4.05;;;9.30;69.30;;;;;;5029138;28;20057;-71
2022/01/30 13:04:46;;;;;;;23.10;4.07;;;9.80;69.20;;;;;;5029567;28;20041;-71
2022/01/30 13:07:13;;;;;;;17.98;3.38;;;10.40;67.50;;;;;;5028640;28;20096;-71
2022/01/30 13:09:39;;;;;;;22.73;4.10;;;10.90;65.60;;;;;;5028900;28;20128;-71
2022/01/30 13:12:16;;;;;;;22.15;3.35;;;11.30;63.70;;;;;;5027414;28;20072;-71
2022/01/30 13:14:42;;;;;;;19.88;3.42;;;11.80;62.40;;;;;;5024586;28;20045;-71
2022/01/30 13:17:10;;;;;;;18.58;3.80;;;12.20;62.50;;;;;;5008986;28;20065;-71
2022/01/30 13:19:44;;;;;;;20.63;3.58;;;12.40;60.70;;;;;;5016011;28;20077;-70
2022/01/30 13:22:24;;;;;;;22.70;3.97;;;12.40;58.90;;;;;;5011791;28;20049;-70
2022/01/30 13:24:57;;;;;;;21.33;3.78;;;12.40;58.70;;;;;;5027913;28;20144;-71
2022/01/30 13:27:23;;;;;;;20.63;3.45;;;12.40;57.80;;;;;;5029133;28;20051;-73
2022/01/30 13:29:53;;;;;;;14.43;3.58;;;12.60;57.30;;;;;;5027858;28;20662;-70
2022/01/30 13:32:19;;;;;;;17.23;3.30;;;12.70;54.90;;;;;;5027069;28;20092;-71
2022/01/30 13:34:46;;;;;;;18.98;3.53;;;12.60;54.40;;;;;;5031640;28;20394;-71
2022/01/30 13:37:15;;;;;;;21.25;3.58;;;12.60;54.90;;;;;;5026828;28;20049;-71
2022/01/30 13:45:05;;;;;;;28.00;4.75;;;12.50;56.30;;;;;;5017506;28;20867;-71
2022/01/30 13:47:32;;;;;;;21.92;4.28;;;12.20;57.30;;;;;;5015678;28;20113;-71
2022/01/30 13:49:57;;;;;;;24.92;4.43;;;12.00;58.00;;;;;;5029002;28;20049;-72
2022/01/30 13:52:30;;;;;;;18.45;3.90;;;11.90;58.90;;;;;;5032437;28;20091;-70
2022/01/30 13:55:02;;;;;;;23.83;4.03;;;11.90;59.20;;;;;;5028625;28;20057;-73